»·PEaware :: ASA935 KGEG-KSEA

ASA935 :: KGEG-KSEA

FLIGHT INFORMATION

Flight Status: Arrived
Operator:
Alaska Airlines
More flights by this operator :: More flights under this callsign
Pilot: Michael S. (20314)
Aircraft: AIRBUS A321
(A321)
More flights by this aircraft type
Origin: KGEG Spokane Intl
United States
Destination: KSEA Seattle-Tacoma Intl
United States
More flights between these airports :: More routes between these airports
Route: GEG6 TEMPL GLASR1
File this flight plan on PilotEdge
Remarks: RMK / SIMBRIEF
Altitude:
(Current/Filed)
34,000ft
Speed:
(Current/Filed)
447kts
Departed: 26-Nov-21 02:29 PM
Arrived: 26-Nov-21 03:16 PM
Distance/Time
Traveled:
193nm/0:47
Distance/Time
To Go:
Arrived

Flight Plot

Page will automatically refresh every two minutes.

Flight plan parsing failed; only flown route is shown


Map Options




Map Legend


Flown Route
Filed Route
Departure Airport
Arrival Airport
Navaid (VOR, NDB)
Fix

Horizontal Profiles

Position Reports

Time Latitude Longitude Heading Altitude Ground
Speed
26-Nov-21 13:43 47.625939 -117.535009 217 2392ft 0kts
26-Nov-21 13:44 47.625939 -117.535009 217 2392ft 0kts
26-Nov-21 13:45 47.625939 -117.535009 217 2392ft 0kts
26-Nov-21 13:46 47.625939 -117.535009 217 2392ft 0kts
26-Nov-21 13:47 47.625939 -117.535009 217 2392ft 0kts
26-Nov-21 13:48 47.625939 -117.535009 217 2392ft 0kts
26-Nov-21 13:49 47.625939 -117.535009 217 2392ft 0kts
26-Nov-21 13:50 47.625939 -117.535009 217 2392ft 0kts
26-Nov-21 13:51 47.625939 -117.535009 217 2392ft 0kts
26-Nov-21 13:52 47.625939 -117.535009 217 2392ft 0kts
26-Nov-21 13:53 47.625939 -117.535009 217 2392ft 0kts
26-Nov-21 13:54 47.625939 -117.535009 217 2392ft 0kts
26-Nov-21 13:55 47.625939 -117.535009 217 2392ft 0kts
26-Nov-21 13:56 47.625939 -117.535009 217 2392ft 0kts
26-Nov-21 13:57 47.625939 -117.535009 217 2392ft 0kts
26-Nov-21 13:58 47.625939 -117.535009 217 2392ft 0kts
26-Nov-21 13:59 47.625939 -117.535009 217 2392ft 0kts
26-Nov-21 14:00 47.625939 -117.535009 217 2392ft 0kts
26-Nov-21 14:01 47.625939 -117.535009 217 2392ft 0kts
26-Nov-21 14:02 47.625939 -117.535009 217 2392ft 0kts
26-Nov-21 14:03 47.625939 -117.535009 217 2392ft 0kts
26-Nov-21 14:04 47.625939 -117.535009 217 2392ft 0kts
26-Nov-21 14:05 47.625939 -117.535009 217 2392ft 0kts
26-Nov-21 14:06 47.625939 -117.535009 217 2392ft 0kts
26-Nov-21 14:07 47.625939 -117.535009 217 2392ft 0kts
26-Nov-21 14:08 47.625939 -117.535009 217 2392ft 0kts
26-Nov-21 14:09 47.625939 -117.535009 217 2392ft 0kts
26-Nov-21 14:10 47.625939 -117.535009 217 2392ft 0kts
26-Nov-21 14:11 47.625939 -117.535009 217 2392ft 0kts
26-Nov-21 14:12 47.625939 -117.535009 217 2392ft 0kts
26-Nov-21 14:13 47.625939 -117.535009 217 2392ft 0kts
26-Nov-21 14:14 47.625939 -117.535009 217 2392ft 0kts
26-Nov-21 14:15 47.625939 -117.535009 217 2392ft 0kts
26-Nov-21 14:16 47.626206 -117.534543 231 2392ft 0kts
26-Nov-21 14:17 47.626352 -117.534580 134 2392ft 0kts
26-Nov-21 14:18 47.626351 -117.534580 134 2392ft 0kts
26-Nov-21 14:19 47.626351 -117.534580 134 2392ft 0kts
26-Nov-21 14:20 47.626351 -117.534580 134 2392ft 0kts
26-Nov-21 14:21 47.626351 -117.534580 134 2392ft 0kts
26-Nov-21 14:22 47.625417 -117.532866 138 2392ft 8kts
26-Nov-21 14:23 47.626382 -117.529665 43 2392ft 12kts
26-Nov-21 14:24 47.629155 -117.525447 45 2392ft 15kts
26-Nov-21 14:25 47.632081 -117.521057 45 2392ft 11kts
26-Nov-21 14:26 47.631959 -117.519575 133 2392ft 0kts
26-Nov-21 14:27 47.630969 -117.518624 213 2392ft 7kts
26-Nov-21 14:28 47.611852 -117.547788 226 3852ft 163kts
26-Nov-21 14:29 47.576574 -117.603047 238 5745ft 219kts
26-Nov-21 14:30 47.581676 -117.702313 275 8370ft 256kts
26-Nov-21 14:31 47.591908 -117.808931 277 10962ft 281kts
26-Nov-21 14:32 47.603455 -117.936216 277 12577ft 333kts
26-Nov-21 14:33 47.615526 -118.071961 277 15586ft 333kts
26-Nov-21 14:34 47.627488 -118.209754 276 18023ft 340kts
26-Nov-21 14:35 47.639451 -118.350033 276 20155ft 348kts
26-Nov-21 14:36 47.651572 -118.494473 276 21981ft 358kts
26-Nov-21 14:38 47.675753 -118.788617 276 23157ft 366kts
26-Nov-21 14:39 47.687917 -118.940218 277 24471ft 372kts
26-Nov-21 14:40 47.700098 -119.094343 277 26087ft 379kts
26-Nov-21 14:41 47.712102 -119.248441 277 28021ft 373kts
26-Nov-21 14:42 47.723642 -119.400055 278 29756ft 367kts
26-Nov-21 14:43 47.735215 -119.549603 279 31238ft 363kts
26-Nov-21 14:44 47.746886 -119.698137 278 32513ft 361kts
26-Nov-21 14:45 47.758491 -119.846430 278 33753ft 359kts
26-Nov-21 14:46 47.769947 -119.995598 278 34230ft 366kts
26-Nov-21 14:47 47.780803 -120.140653 279 32559ft 352kts
26-Nov-21 14:48 47.791379 -120.284502 279 29985ft 351kts
26-Nov-21 14:49 47.801958 -120.429795 279 26792ft 360kts
26-Nov-21 14:50 47.812595 -120.579065 278 24196ft 367kts
26-Nov-21 14:51 47.823158 -120.730451 278 24110ft 361kts
26-Nov-21 14:52 47.833184 -120.874905 276 19572ft 368kts
26-Nov-21 14:53 47.842989 -121.021147 275 16926ft 350kts
26-Nov-21 14:54 47.852365 -121.163713 275 13965ft 344kts
26-Nov-21 14:55 47.861516 -121.304934 276 11964ft 344kts
26-Nov-21 14:56 47.870568 -121.447040 276 11955ft 346kts
26-Nov-21 14:57 47.878711 -121.577546 276 11979ft 277kts
26-Nov-21 14:58 47.884518 -121.683454 265 11677ft 252kts
26-Nov-21 14:59 47.839705 -121.767169 224 10017ft 270kts
26-Nov-21 15:00 47.785450 -121.840265 224 9989ft 271kts
26-Nov-21 15:01 47.733110 -121.910931 224 9965ft 271kts
26-Nov-21 15:02 47.677307 -121.986059 224 9959ft 271kts
26-Nov-21 15:03 47.639791 -122.036464 224 9963ft 272kts
26-Nov-21 15:04 47.568533 -122.135933 244 9951ft 268kts
26-Nov-21 15:05 47.591365 -122.233952 323 9789ft 270kts
26-Nov-21 15:06 47.660849 -122.210145 35 8278ft 274kts
26-Nov-21 15:07 47.723273 -122.196337 308 7456ft 238kts
26-Nov-21 15:08 47.722568 -122.287972 255 6227ft 230kts
26-Nov-21 15:09 47.675277 -122.312590 145 5302ft 213kts
26-Nov-21 15:10 47.628513 -122.305885 183 4303ft 179kts
26-Nov-21 15:11 47.580343 -122.306699 182 2718ft 171kts
26-Nov-21 15:12 47.536758 -122.307076 181 1872ft 147kts
26-Nov-21 15:13 47.499156 -122.307419 180 1163ft 138kts
26-Nov-21 15:14 47.461400 -122.307694 182 457ft 134kts
26-Nov-21 15:15 47.445996 -122.306693 76 442ft 14kts
26-Nov-21 15:16 47.450117 -122.304673 57 442ft 17kts
26-Nov-21 15:17 47.448540 -122.300157 156 442ft 14kts

Navigation Log

Ident Type
Flight plan parsing failed, navigation log unavailable